createdAt,value
2023-05-12T00:00:15.127Z,12.03
2023-05-12T00:02:42.904Z,12.10
2023-05-12T00:05:10.803Z,12.20
2023-05-12T00:07:38.286Z,12.12
2023-05-12T00:10:08.092Z,12.36
2023-05-12T00:12:35.951Z,12.42
2023-05-12T00:15:04.458Z,12.67
2023-05-12T00:17:32.014Z,12.84
2023-05-12T00:19:59.561Z,13.03
2023-05-12T00:22:27.647Z,12.91
2023-05-12T00:24:55.158Z,12.83
2023-05-12T00:27:24.144Z,12.89
2023-05-12T00:29:51.629Z,12.93
2023-05-12T00:32:19.117Z,12.71
2023-05-12T00:34:46.576Z,12.99
2023-05-12T00:37:14.095Z,12.95
2023-05-12T00:39:41.585Z,12.76
2023-05-12T00:42:09.367Z,12.73
2023-05-12T00:44:38.230Z,12.95
2023-05-12T00:47:06.315Z,12.94
2023-05-12T00:49:33.839Z,12.87
2023-05-12T00:52:03.912Z,12.95
2023-05-12T00:54:31.458Z,12.95
2023-05-12T00:56:59.031Z,12.98
2023-05-12T00:59:26.769Z,12.97
2023-05-12T01:01:55.613Z,12.94
2023-05-12T01:04:23.316Z,12.87
2023-05-12T01:06:55.714Z,12.81
2023-05-12T01:09:23.223Z,12.86
2023-05-12T01:11:50.728Z,12.84
2023-05-12T01:14:18.235Z,12.60
2023-05-12T01:16:49.494Z,12.73
2023-05-12T01:19:26.183Z,12.78
2023-05-12T01:21:53.705Z,12.79
2023-05-12T01:24:21.754Z,12.88
2023-05-12T01:26:50.554Z,12.66
2023-05-12T01:29:19.255Z,12.71
2023-05-12T01:31:47.200Z,12.87
2023-05-12T01:34:16.079Z,12.71
2023-05-12T01:36:43.544Z,12.84
2023-05-12T01:39:11.138Z,12.79
2023-05-12T01:41:38.648Z,12.58
2023-05-12T01:44:07.570Z,12.54
2023-05-12T01:46:35.113Z,12.71
2023-05-12T01:49:02.647Z,12.65
2023-05-12T01:51:30.135Z,12.97
2023-05-12T01:53:57.627Z,12.96
2023-05-12T01:56:25.129Z,12.14
2023-05-12T01:58:52.656Z,11.87
2023-05-12T02:01:23.195Z,12.00
2023-05-12T02:03:51.413Z,11.83
2023-05-12T02:06:18.983Z,11.80
2023-05-12T02:08:47.204Z,11.59
2023-05-12T02:11:14.687Z,11.34
2023-05-12T02:13:42.361Z,11.18
2023-05-12T02:16:09.915Z,11.43
2023-05-12T02:18:38.879Z,11.64
2023-05-12T02:21:06.622Z,11.17
2023-05-12T02:23:34.108Z,11.10
2023-05-12T02:26:01.642Z,11.18
2023-05-12T02:28:29.120Z,10.80
2023-05-12T02:30:56.958Z,11.01
2023-05-12T02:33:24.456Z,11.42
2023-05-12T02:35:53.298Z,11.11
2023-05-12T02:38:20.770Z,11.25
2023-05-12T02:40:48.417Z,11.04
2023-05-12T02:43:15.921Z,11.18
2023-05-12T02:45:43.447Z,11.47
2023-05-12T02:48:11.269Z,11.24
2023-05-12T02:50:38.741Z,11.65
2023-05-12T02:53:07.550Z,11.64
2023-05-12T02:55:35.043Z,11.54
2023-05-12T02:58:02.526Z,11.60
2023-05-12T03:00:30.048Z,11.68
2023-05-12T03:02:57.652Z,11.65
2023-05-12T03:05:25.187Z,11.64
2023-05-12T03:07:52.678Z,11.70
2023-05-12T03:10:21.701Z,11.65
2023-05-12T03:12:49.371Z,11.73
2023-05-12T03:15:17.101Z,11.70
2023-05-12T03:17:44.599Z,11.74
2023-05-12T03:20:12.759Z,11.82
2023-05-12T03:22:40.373Z,11.74
2023-05-12T03:25:10.568Z,11.73
2023-05-12T03:27:39.376Z,11.77
2023-05-12T03:30:07.956Z,11.78
2023-05-12T03:32:35.536Z,11.93
2023-05-12T03:35:03.119Z,11.92
2023-05-12T03:37:30.646Z,11.91
2023-05-12T03:39:58.621Z,11.86
2023-05-12T03:42:26.088Z,11.94
2023-05-12T03:44:54.917Z,11.98
2023-05-12T03:47:22.451Z,11.98
2023-05-12T03:49:49.994Z,12.00
2023-05-12T03:52:17.463Z,11.96
2023-05-12T03:54:44.941Z,12.05
2023-05-12T03:57:13.265Z,12.04
2023-05-12T03:59:41.262Z,12.07
2023-05-12T04:02:11.841Z,12.07
2023-05-12T04:04:39.505Z,12.22
2023-05-12T04:07:07.356Z,12.19
2023-05-12T04:09:34.930Z,12.22
2023-05-12T04:12:02.520Z,12.13
2023-05-12T04:14:41.619Z,12.25
2023-05-12T04:17:11.889Z,12.20
2023-05-12T04:19:39.395Z,12.25
2023-05-12T04:22:06.878Z,12.27
2023-05-12T04:24:34.367Z,12.39
2023-05-12T04:27:01.870Z,12.37
2023-05-12T04:29:29.384Z,12.34
2023-05-12T04:31:57.212Z,12.50
2023-05-12T04:34:26.052Z,12.55
2023-05-12T04:36:53.564Z,12.52
2023-05-12T04:39:21.272Z,12.56
2023-05-12T04:41:48.780Z,12.56
2023-05-12T04:44:16.356Z,12.66
2023-05-12T04:46:44.200Z,12.62
2023-05-12T04:49:11.866Z,12.69
2023-05-12T04:51:42.383Z,12.77
2023-05-12T04:54:10.629Z,12.80
2023-05-12T04:56:38.153Z,12.77
2023-05-12T04:59:06.258Z,12.72
2023-05-12T05:01:33.873Z,12.86
2023-05-12T05:04:01.495Z,12.90
2023-05-12T05:06:29.030Z,12.91
2023-05-12T05:08:57.788Z,12.87
2023-05-12T05:11:25.866Z,12.98
2023-05-12T05:13:53.381Z,12.96
2023-05-12T05:16:20.960Z,13.01
2023-05-12T05:18:48.535Z,13.00
2023-05-12T05:21:16.144Z,13.09
2023-05-12T05:23:43.731Z,13.09
2023-05-12T05:26:12.720Z,13.13
2023-05-12T05:28:40.694Z,13.12
2023-05-12T05:31:08.520Z,13.20
2023-05-12T05:33:36.125Z,13.23
2023-05-12T05:36:03.633Z,13.24
2023-05-12T05:38:31.177Z,13.25
2023-05-12T05:40:58.677Z,13.31
2023-05-12T05:43:27.582Z,13.36
2023-05-12T05:45:55.893Z,13.38
2023-05-12T05:48:23.485Z,13.35
2023-05-12T05:50:52.038Z,13.33
2023-05-12T05:53:19.710Z,13.32
2023-05-12T05:55:48.503Z,13.36
2023-05-12T05:58:16.250Z,13.35
2023-05-12T06:00:45.184Z,13.39
2023-05-12T06:03:12.796Z,13.46
2023-05-12T06:05:42.124Z,13.46
2023-05-12T06:08:13.000Z,13.51
2023-05-12T06:10:40.869Z,13.55
2023-05-12T06:13:08.464Z,13.65
2023-05-12T06:15:35.966Z,13.64
2023-05-12T06:18:05.089Z,13.77
2023-05-12T06:20:32.977Z,13.65
2023-05-12T06:23:00.923Z,13.73
2023-05-12T06:25:28.416Z,13.77
2023-05-12T06:27:56.071Z,13.74
2023-05-12T06:30:23.767Z,13.77
2023-05-12T06:32:51.293Z,13.84
2023-05-12T06:35:20.513Z,13.90
2023-05-12T06:37:50.741Z,13.94
2023-05-12T06:40:18.583Z,14.07
2023-05-12T06:42:46.104Z,14.12
2023-05-12T06:45:13.648Z,14.14
2023-05-12T06:47:41.228Z,14.28
2023-05-12T06:50:09.676Z,14.25
2023-05-12T06:52:38.472Z,14.34
2023-05-12T06:55:06.970Z,14.34
2023-05-12T06:57:34.555Z,14.46
2023-05-12T07:00:03.159Z,14.68
2023-05-12T07:02:30.909Z,14.62
2023-05-12T07:04:58.621Z,14.76
2023-05-12T07:07:26.117Z,14.89
2023-05-12T07:09:54.926Z,15.20
2023-05-12T07:12:22.425Z,15.04
2023-05-12T07:14:49.901Z,15.17
2023-05-12T07:17:17.463Z,15.69
2023-05-12T07:19:44.945Z,15.38
2023-05-12T07:22:13.504Z,15.35
2023-05-12T07:24:41.622Z,15.54
2023-05-12T07:27:10.485Z,15.67
2023-05-12T07:29:38.607Z,15.61
2023-05-12T07:32:06.209Z,15.58
2023-05-12T07:34:34.027Z,15.70
2023-05-12T07:37:02.407Z,15.82
2023-05-12T07:39:32.184Z,15.86
2023-05-12T07:41:59.661Z,15.95
2023-05-12T07:44:28.637Z,16.23
2023-05-12T07:46:56.200Z,16.54
2023-05-12T07:49:24.203Z,16.37
2023-05-12T07:51:51.696Z,16.19
2023-05-12T07:54:19.186Z,16.58
2023-05-12T07:56:46.654Z,16.59
2023-05-12T07:59:14.407Z,16.74
2023-05-12T08:01:43.751Z,16.58
2023-05-12T08:04:11.632Z,17.19
2023-05-12T08:06:39.199Z,17.13
2023-05-12T08:09:06.705Z,17.22
2023-05-12T08:11:34.231Z,17.47
2023-05-12T08:14:01.756Z,17.55
2023-05-12T08:16:29.364Z,17.68
2023-05-12T08:18:58.764Z,18.48
2023-05-12T08:21:26.308Z,17.97
2023-05-12T08:23:53.793Z,19.26
2023-05-12T08:26:21.368Z,18.81
2023-05-12T08:28:48.843Z,18.52
2023-05-12T08:31:16.319Z,18.25
2023-05-12T08:33:43.825Z,18.38
2023-05-12T08:36:12.695Z,18.79
2023-05-12T08:38:40.340Z,18.46
2023-05-12T08:41:13.749Z,18.51
2023-05-12T08:43:44.796Z,18.36
2023-05-12T08:46:13.046Z,18.57
2023-05-12T08:48:41.286Z,18.76
2023-05-12T08:51:11.981Z,19.01
2023-05-12T08:53:42.749Z,17.98
2023-05-12T08:58:42.602Z,18.55
2023-05-12T09:01:12.714Z,18.34
2023-05-12T09:03:40.355Z,19.01
2023-05-12T09:06:09.566Z,17.99
2023-05-12T09:08:37.890Z,18.87
2023-05-12T09:11:06.814Z,19.84
2023-05-12T09:13:40.406Z,20.18
2023-05-12T09:16:09.166Z,18.78
2023-05-12T09:18:47.730Z,18.99
2023-05-12T09:21:15.277Z,19.85
2023-05-12T09:23:53.370Z,20.54
2023-05-12T09:26:23.276Z,19.23
2023-05-12T09:28:51.092Z,19.57
2023-05-12T09:31:19.586Z,19.33
2023-05-12T09:33:47.226Z,21.05
2023-05-12T09:36:18.209Z,19.30
2023-05-12T09:38:45.951Z,19.81
2023-05-12T09:41:13.459Z,20.57
2023-05-12T09:43:47.058Z,19.82
2023-05-12T09:46:15.570Z,19.67
2023-05-12T09:48:43.154Z,19.97
2023-05-12T09:51:11.731Z,19.88
2023-05-12T09:53:44.446Z,21.00
2023-05-12T09:56:13.342Z,21.11
2023-05-12T09:58:42.990Z,23.17
2023-05-12T10:01:22.876Z,23.16
2023-05-12T10:03:53.168Z,22.22
2023-05-12T10:06:22.690Z,20.88
2023-05-12T10:08:53.459Z,20.34
2023-05-12T10:11:22.353Z,21.29
2023-05-12T10:13:50.130Z,20.28
2023-05-12T10:16:19.057Z,20.68
2023-05-12T10:18:47.402Z,20.34
2023-05-12T10:21:16.021Z,20.73
2023-05-12T10:23:45.139Z,20.97
2023-05-12T10:26:13.662Z,23.45
2023-05-12T10:28:42.885Z,22.25
2023-05-12T10:31:11.325Z,21.76
2023-05-12T10:33:40.146Z,22.09
2023-05-12T10:36:17.983Z,22.94
2023-05-12T10:38:49.574Z,23.41
2023-05-12T10:41:17.854Z,22.11
2023-05-12T10:43:49.701Z,22.99
2023-05-12T10:46:18.658Z,21.51
2023-05-12T10:49:10.146Z,21.78
2023-05-12T10:51:48.603Z,21.36
2023-05-12T10:54:21.360Z,21.94
2023-05-12T10:56:49.933Z,21.18
2023-05-12T10:59:19.676Z,21.89
2023-05-12T11:01:58.913Z,23.14
2023-05-12T11:04:40.708Z,21.80
2023-05-12T11:07:09.784Z,22.66
2023-05-12T11:09:43.427Z,22.20
2023-05-12T11:12:18.342Z,22.00
2023-05-12T11:14:46.870Z,24.42
2023-05-12T11:17:14.909Z,24.74
2023-05-12T11:19:46.498Z,22.77
2023-05-12T11:22:15.045Z,24.46
2023-05-12T11:24:42.985Z,24.20
2023-05-12T11:27:13.828Z,22.87
2023-05-12T11:29:41.676Z,23.59
2023-05-12T11:32:10.704Z,23.44
2023-05-12T11:34:40.006Z,22.51
2023-05-12T11:37:08.816Z,22.96
2023-05-12T11:39:37.228Z,24.03
2023-05-12T11:42:12.695Z,21.99
2023-05-12T11:44:47.686Z,22.67
2023-05-12T11:47:15.786Z,22.08
2023-05-12T11:49:47.411Z,25.65
2023-05-12T11:52:17.027Z,23.18
2023-05-12T11:54:49.396Z,23.75
2023-05-12T11:57:25.984Z,23.36
2023-05-12T11:59:58.354Z,21.80
2023-05-12T12:02:25.925Z,22.55
2023-05-12T12:04:53.478Z,23.00
2023-05-12T12:07:31.603Z,22.57
2023-05-12T12:09:59.805Z,24.90
2023-05-12T12:12:27.258Z,22.55
2023-05-12T12:14:59.892Z,25.91
2023-05-12T12:17:30.842Z,22.99
2023-05-12T12:19:58.601Z,23.07
2023-05-12T12:22:26.082Z,22.59
2023-05-12T12:24:54.895Z,21.88
2023-05-12T12:27:22.377Z,22.82
2023-05-12T12:29:50.236Z,26.10
2023-05-12T12:32:17.720Z,24.60
2023-05-12T12:34:46.350Z,24.13
2023-05-12T12:37:14.021Z,24.28
2023-05-12T12:39:41.499Z,23.12
2023-05-12T12:42:10.374Z,22.22
2023-05-12T12:44:37.836Z,22.91
2023-05-12T12:47:05.764Z,24.43
2023-05-12T12:49:33.272Z,23.58
2023-05-12T12:52:00.835Z,23.63
2023-05-12T12:54:28.406Z,23.14
2023-05-12T12:56:56.556Z,21.17
2023-05-12T12:59:25.490Z,25.87
2023-05-12T13:01:53.301Z,21.85
2023-05-12T13:04:22.890Z,23.40
2023-05-12T13:06:50.537Z,23.69
2023-05-12T13:09:19.878Z,24.15
2023-05-12T13:11:47.570Z,23.95
2023-05-12T13:14:16.023Z,22.65
2023-05-12T13:16:44.875Z,24.82
2023-05-12T13:19:12.539Z,25.89
2023-05-12T13:21:40.072Z,24.74
2023-05-12T13:24:07.890Z,23.77
2023-05-12T13:26:35.506Z,22.23
2023-05-12T13:29:03.310Z,24.05
2023-05-12T13:31:31.115Z,25.58
2023-05-12T13:34:00.045Z,25.92
2023-05-12T13:36:28.540Z,23.37
2023-05-12T13:38:56.050Z,24.68
2023-05-12T13:41:23.555Z,23.13
2023-05-12T13:43:51.104Z,24.17
2023-05-12T13:46:18.613Z,23.72
2023-05-12T13:48:46.999Z,25.88
2023-05-12T13:51:16.071Z,22.17
2023-05-12T13:53:43.577Z,22.62
2023-05-12T13:56:11.196Z,24.53
2023-05-12T13:58:38.684Z,23.52
2023-05-12T14:01:08.582Z,23.31
2023-05-12T14:03:37.030Z,23.29
2023-05-12T14:06:04.918Z,23.03
2023-05-12T14:08:33.745Z,25.99
2023-05-12T14:11:01.293Z,22.70
2023-05-12T14:13:28.844Z,23.59
2023-05-12T14:15:56.592Z,23.46
2023-05-12T14:18:27.233Z,23.11
2023-05-12T14:20:54.764Z,24.27
2023-05-12T14:23:22.283Z,26.10
2023-05-12T14:25:51.353Z,26.47
2023-05-12T14:28:18.952Z,25.34
2023-05-12T14:30:48.623Z,24.63
2023-05-12T14:33:16.225Z,24.30
2023-05-12T14:35:52.862Z,25.56
2023-05-12T14:38:23.653Z,24.60
2023-05-12T14:40:52.438Z,24.33
2023-05-12T14:43:19.918Z,24.21
2023-05-12T14:45:54.164Z,24.63
2023-05-12T14:48:22.426Z,23.19
2023-05-12T14:50:53.007Z,23.11
2023-05-12T14:53:20.763Z,23.65
2023-05-12T14:55:48.308Z,22.99
2023-05-12T14:58:17.730Z,24.85
2023-05-12T15:00:45.548Z,24.50
2023-05-12T15:03:13.479Z,23.06
2023-05-12T15:06:01.709Z,24.23
2023-05-12T15:08:28.918Z,22.57
2023-05-12T15:10:56.402Z,24.67
2023-05-12T15:13:25.273Z,24.41
2023-05-12T15:15:55.215Z,24.76
2023-05-12T15:18:24.633Z,23.32
2023-05-12T15:20:52.472Z,22.85
2023-05-12T15:23:19.980Z,23.61
2023-05-12T15:25:47.514Z,23.48
2023-05-12T15:28:15.032Z,24.90
2023-05-12T15:30:44.984Z,23.24
2023-05-12T15:33:12.558Z,23.38
2023-05-12T15:35:40.401Z,24.87
2023-05-12T15:38:08.269Z,25.35
2023-05-12T15:40:35.747Z,24.55
2023-05-12T15:43:03.642Z,23.56
2023-05-12T15:45:31.517Z,25.75
2023-05-12T15:48:00.387Z,24.77
2023-05-12T15:50:27.983Z,23.47
2023-05-12T15:52:55.723Z,23.43
2023-05-12T15:55:23.438Z,24.35
2023-05-12T15:57:51.109Z,25.07
2023-05-12T16:00:19.476Z,23.41
2023-05-12T16:02:47.168Z,23.51
2023-05-12T16:05:16.213Z,26.34
2023-05-12T16:07:43.754Z,25.44
2023-05-12T16:10:11.614Z,24.74
2023-05-12T16:12:39.106Z,24.79
2023-05-12T16:15:07.191Z,25.16
2023-05-12T16:17:34.819Z,23.09
2023-05-12T16:20:02.624Z,23.62
2023-05-12T16:22:31.696Z,24.40
2023-05-12T16:24:59.283Z,25.66
2023-05-12T16:27:26.831Z,23.13
2023-05-12T16:29:54.542Z,24.39
2023-05-12T16:32:22.126Z,23.19
2023-05-12T16:34:49.740Z,24.70
2023-05-12T16:37:17.202Z,23.05
2023-05-12T16:39:46.146Z,22.72
2023-05-12T16:42:13.625Z,23.55
2023-05-12T16:44:41.136Z,23.43
2023-05-12T16:47:09.129Z,24.77
2023-05-12T16:49:36.608Z,25.37
2023-05-12T16:52:04.269Z,22.31
2023-05-12T16:54:32.629Z,21.98
2023-05-12T16:57:02.960Z,23.85
2023-05-12T16:59:32.349Z,25.00
2023-05-12T17:02:01.268Z,24.15
2023-05-12T17:04:31.601Z,23.93
2023-05-12T17:06:59.193Z,22.31
2023-05-12T17:09:26.718Z,22.29
2023-05-12T17:11:54.402Z,22.89
2023-05-12T17:14:23.437Z,22.24
2023-05-12T17:16:51.596Z,22.42
2023-05-12T17:19:19.290Z,21.94
2023-05-12T17:21:46.794Z,23.88
2023-05-12T17:24:14.948Z,23.67
2023-05-12T17:26:44.449Z,22.25
2023-05-12T17:29:11.916Z,22.16
2023-05-12T17:31:41.318Z,21.44
2023-05-12T17:34:08.833Z,22.88
2023-05-12T17:36:36.490Z,22.34
2023-05-12T17:39:04.427Z,21.97
2023-05-12T17:41:31.990Z,22.83
2023-05-12T17:43:59.590Z,21.51
2023-05-12T17:46:27.589Z,23.18
2023-05-12T17:48:56.528Z,22.93
2023-05-12T17:51:23.999Z,22.65
2023-05-12T17:53:51.561Z,22.77
2023-05-12T17:56:19.098Z,22.28
2023-05-12T17:58:47.066Z,23.11
2023-05-12T18:01:14.615Z,22.00
2023-05-12T18:03:42.239Z,21.39
2023-05-12T18:06:12.795Z,21.76
2023-05-12T18:08:40.618Z,21.16
2023-05-12T18:11:08.405Z,21.67
2023-05-12T18:13:35.962Z,21.12
2023-05-12T18:16:03.483Z,20.52
2023-05-12T18:18:31.337Z,20.47
2023-05-12T18:20:59.567Z,20.35
2023-05-12T18:23:28.460Z,20.06
2023-05-12T18:25:56.307Z,19.53
2023-05-12T18:28:23.997Z,20.84
2023-05-12T18:30:51.755Z,20.22
2023-05-12T18:33:19.698Z,19.37
2023-05-12T18:35:47.401Z,19.11
2023-05-12T18:38:14.887Z,18.89
2023-05-12T18:40:43.697Z,18.91
2023-05-12T18:43:11.320Z,18.82
2023-05-12T18:45:38.818Z,19.17
2023-05-12T18:48:06.584Z,19.03
2023-05-12T18:50:34.142Z,18.49
2023-05-12T18:53:01.902Z,18.45
2023-05-12T18:55:29.479Z,18.89
2023-05-12T18:57:58.297Z,18.14
2023-05-12T19:00:27.643Z,17.96
2023-05-12T19:02:55.227Z,17.95
2023-05-12T19:05:23.111Z,17.90
2023-05-12T19:07:50.981Z,17.81
2023-05-12T19:10:19.026Z,17.77
2023-05-12T19:12:48.071Z,17.21
2023-05-12T19:15:17.567Z,16.95
2023-05-12T19:17:45.186Z,16.62
2023-05-12T19:20:14.099Z,16.30
2023-05-12T19:22:41.971Z,16.27
2023-05-12T19:25:10.104Z,15.97
2023-05-12T19:27:37.693Z,15.69
2023-05-12T19:30:06.044Z,15.66
2023-05-12T19:32:35.061Z,15.58
2023-05-12T19:35:04.867Z,15.45
2023-05-12T19:37:33.374Z,15.59
2023-05-12T19:40:01.240Z,15.25
2023-05-12T19:42:28.785Z,15.37
2023-05-12T19:44:56.270Z,15.72
2023-05-12T19:47:25.177Z,15.66
2023-05-12T19:49:54.957Z,15.57
2023-05-12T19:52:24.724Z,15.48
2023-05-12T19:54:52.613Z,15.49
2023-05-12T19:57:20.928Z,15.47
2023-05-12T19:59:49.532Z,15.48
2023-05-12T20:02:18.034Z,15.37
2023-05-12T20:04:45.710Z,15.59
2023-05-12T20:07:14.797Z,15.47
2023-05-12T20:09:42.443Z,15.35
2023-05-12T20:12:11.277Z,14.99
2023-05-12T20:14:39.344Z,14.96
2023-05-12T20:17:07.714Z,14.64
2023-05-12T20:19:35.283Z,14.77
2023-05-12T20:22:02.926Z,14.64
2023-05-12T20:24:32.057Z,14.94
2023-05-12T20:26:59.629Z,14.64
2023-05-12T20:29:27.596Z,14.63
2023-05-12T20:31:55.360Z,14.93
2023-05-12T20:34:22.904Z,15.11
2023-05-12T20:36:50.518Z,14.76
2023-05-12T20:39:18.328Z,14.83
2023-05-12T20:41:47.456Z,14.74
2023-05-12T20:44:15.118Z,14.67
2023-05-12T20:46:42.735Z,14.69
2023-05-12T20:49:10.319Z,14.95
2023-05-12T20:51:37.909Z,14.88
2023-05-12T20:54:08.461Z,14.86
2023-05-12T20:56:35.952Z,14.75
2023-05-12T20:59:04.791Z,14.81
2023-05-12T21:01:32.412Z,14.76
2023-05-12T21:03:59.970Z,14.82
2023-05-12T21:06:27.572Z,14.85
2023-05-12T21:08:55.078Z,14.75
2023-05-12T21:11:23.025Z,14.47
2023-05-12T21:13:50.520Z,14.52
2023-05-12T21:16:19.414Z,14.85
2023-05-12T21:18:46.995Z,14.66
2023-05-12T21:21:14.550Z,14.50
2023-05-12T21:23:42.017Z,14.43
2023-05-12T21:26:10.420Z,14.65
2023-05-12T21:28:38.003Z,14.20
2023-05-12T21:31:05.681Z,14.20
2023-05-12T21:33:34.486Z,14.41
2023-05-12T21:36:01.965Z,14.51
2023-05-12T21:38:31.884Z,14.09
2023-05-12T21:40:59.392Z,14.37
2023-05-12T21:43:26.930Z,14.14
2023-05-12T21:45:54.430Z,14.15
2023-05-12T21:48:22.005Z,14.09
2023-05-12T21:50:59.911Z,13.76
2023-05-12T21:53:27.494Z,14.06
2023-05-12T21:55:55.029Z,13.96
2023-05-12T21:58:23.601Z,13.74
2023-05-12T22:00:51.656Z,13.64
2023-05-12T22:03:20.349Z,13.70
2023-05-12T22:05:48.529Z,13.73
2023-05-12T22:08:17.466Z,13.63
2023-05-12T22:10:45.299Z,13.47
2023-05-12T22:13:12.813Z,13.44
2023-05-12T22:15:40.314Z,13.28
2023-05-12T22:18:08.266Z,13.47
2023-05-12T22:20:35.805Z,13.71
2023-05-12T22:23:03.780Z,13.62
2023-05-12T22:25:32.844Z,13.66
2023-05-12T22:28:00.547Z,13.58
2023-05-12T22:30:28.209Z,13.58
2023-05-12T22:32:56.242Z,13.65
2023-05-12T22:35:23.827Z,13.49
2023-05-12T22:37:51.317Z,13.43
2023-05-12T22:40:21.321Z,13.35
2023-05-12T22:42:50.321Z,13.36
2023-05-12T22:45:17.898Z,13.24
2023-05-12T22:47:45.426Z,13.14
2023-05-12T22:50:12.988Z,13.25
2023-05-12T22:52:40.561Z,13.36
2023-05-12T22:55:08.610Z,13.30
2023-05-12T22:57:38.509Z,13.17
2023-05-12T23:00:08.577Z,13.31
2023-05-12T23:02:36.392Z,13.16
2023-05-12T23:05:04.600Z,13.03
2023-05-12T23:07:32.108Z,13.09
2023-05-12T23:09:59.722Z,13.12
2023-05-12T23:12:27.244Z,12.87
2023-05-12T23:14:54.990Z,12.93
2023-05-12T23:17:23.924Z,12.99
2023-05-12T23:19:52.185Z,13.11
2023-05-12T23:22:19.715Z,13.11
2023-05-12T23:24:47.378Z,13.03
2023-05-12T23:27:15.278Z,12.80
2023-05-12T23:29:42.890Z,12.97
2023-05-12T23:32:10.464Z,13.01
2023-05-12T23:34:40.346Z,13.06
2023-05-12T23:37:08.380Z,13.05
2023-05-12T23:39:36.041Z,12.84
2023-05-12T23:42:03.823Z,13.04
2023-05-12T23:44:31.504Z,13.07
2023-05-12T23:47:01.913Z,13.25
2023-05-12T23:49:29.410Z,12.99
2023-05-12T23:51:58.191Z,13.09
2023-05-12T23:54:25.712Z,12.95
2023-05-12T23:56:53.195Z,13.05
2023-05-12T23:59:20.681Z,13.22
